Latest Weather Observations for Broken Hill Airport

IDN60801

Issued at 1:05 pm EST Friday 29 August 2014 (issued every 30 minutes, with the page automatically refreshed every 10 minutes)

About weather observations | Map of weather stations | Latest weather observations for NSW | Other Formats
Station Details ID: 047048 Name: BROKEN HILL AIRPORT AWS Lat: -32.00 Lon: 141.47 Height: 281.3 m
Data from the previous 72 hours. | See also: Recent months for locations in New South Wales
Date/Time
EST
Temp
°C
App
Temp
°C
Dew
Point
Rel
Hum
%
Delta-T
°C
Wind Press
QNH
hPa
Press
MSL
hPa
Rain
since 9 am
mm
Dir
 
Spd
km/h
Gust
km/h
Spd
kts
Gust
kts
29/01:00pm 21.3 17.4 3.5 31 8.6 SE 13 24 7 13 1027.2 - 0.0
29/12:30pm 20.9 16.6 3.2 31 8.5 SE 15 26 8 14 1027.8 1027.9 0.0
29/12:00pm 20.2 15.7 2.1 30 8.5 SE 15 22 8 12 1028.0 - 0.0
29/11:30am 20.5 16.5 2.8 31 8.4 ESE 13 20 7 11 1028.3 - 0.0
29/11:00am 19.8 15.7 2.2 31 8.2 E 13 22 7 12 1028.6 - 0.0
29/10:30am 19.7 16.1 3.0 33 7.9 ESE 11 15 6 8 1028.7 - 0.0
29/10:00am 18.8 15.2 3.0 35 7.4 SE 11 15 6 8 1028.9 - 0.0
29/09:30am 17.0 14.8 5.3 46 5.7 SW 6 9 3 5 1028.9 1029.0 0.0
29/09:00am 15.0 13.9 5.2 52 4.7 CALM 0 0 0 0 1028.9 - 0.0
29/08:30am 12.2 11.2 5.6 64 3.1 CALM 0 0 0 0 1028.8 - 0.0
29/08:00am 10.0 9.0 5.8 75 2.0 CALM 0 0 0 0 1028.7 - 0.0
29/07:30am 6.1 4.5 2.4 77 1.5 CALM 0 0 0 0 1028.5 - 0.0
29/07:00am 6.4 4.9 2.9 78 1.5 CALM 0 0 0 0 1028.3 - 0.0
29/06:30am 6.1 3.2 2.7 79 1.4 NNE 7 9 4 5 1028.1 1028.2 0.0
29/06:00am 7.4 6.0 3.5 76 1.7 CALM 0 0 0 0 1027.8 - 0.0
29/05:30am 7.1 5.5 2.6 73 1.9 CALM 0 0 0 0 1027.6 - 0.0
29/05:00am 7.9 6.5 3.4 73 2.0 CALM 0 0 0 0 1027.4 - 0.0
29/04:30am 7.0 5.3 1.7 69 2.2 CALM 0 0 0 0 1027.3 - 0.0
29/04:00am 9.6 8.3 4.2 69 2.4 CALM 0 0 0 0 1027.2 - 0.0
29/03:30am 9.3 8.0 4.3 71 2.2 CALM 0 0 0 0 1027.0 1027.1 0.0
29/03:00am 8.9 7.6 3.9 71 2.2 CALM 0 0 0 0 1027.1 - 0.0
29/02:30am 8.5 7.2 3.9 73 2.0 CALM 0 0 0 0 1027.3 - 0.0
29/02:00am 8.7 7.3 3.3 69 2.4 CALM 0 0 0 0 1027.7 - 0.0
29/01:30am 9.0 7.7 4.2 72 2.1 CALM 0 0 0 0 1027.9 - 0.0
29/01:00am 8.4 7.0 3.3 70 2.2 CALM 0 0 0 0 1027.8 - 0.0
29/12:30am 8.4 7.0 3.3 70 2.2 NNE 0 0 0 0 1027.9 1028.0 0.0
29/12:00am 11.2 9.9 4.0 61 3.3 CALM 0 6 0 3 1028.0 - 0.0
 
Date/Time
EST
Temp
°C
App
Temp
°C
Dew
Point
Rel
Hum
%
Delta-T
°C
Wind Press
QNH
hPa
Press
MSL
hPa
Rain
since 9 am
mm
Dir
 
Spd
km/h
Gust
km/h
Spd
kts
Gust
kts
28/11:30pm 9.0 7.2 3.6 69 2.4 W 2 11 1 6 1028.1 - 0.0
28/11:00pm 11.3 10.0 4.3 62 3.2 CALM 0 0 0 0 1028.2 - 0.0
28/10:30pm 11.1 9.8 4.1 62 3.2 CALM 0 0 0 0 1028.2 - 0.0
28/10:00pm 12.4 11.1 4.1 57 3.8 CALM 0 0 0 0 1028.1 - 0.0
28/09:30pm 13.4 12.2 4.6 55 4.1 CALM 0 0 0 0 1028.1 1028.2 0.0
28/09:00pm 13.4 11.4 4.6 55 4.1 SE 4 6 2 3 1028.1 - 0.0
28/08:30pm 13.5 10.9 4.4 54 4.2 SE 7 9 4 5 1028.1 - 0.0
28/08:00pm 14.0 11.4 4.0 51 4.6 ESE 7 11 4 6 1027.7 - 0.0
28/07:30pm 14.4 13.1 4.1 50 4.8 CALM 0 0 0 0 1027.5 - 0.0
28/07:00pm 14.7 11.8 4.4 50 4.8 SE 9 11 5 6 1027.2 - 0.0
28/06:30pm 16.0 12.2 3.8 44 5.7 SE 13 13 7 7 1027.1 1027.2 0.0
28/06:00pm 18.2 14.0 3.7 38 6.9 ESE 15 20 8 11 1027.1 - 0.0
28/05:30pm 19.2 15.1 4.6 38 7.1 SSE 15 20 8 11 1027.0 - 0.0
28/05:00pm 19.7 14.5 3.4 34 7.8 SE 20 30 11 16 1026.9 - 0.0
28/04:30pm 19.9 14.7 3.6 34 7.8 SE 20 26 11 14 1026.9 - 0.0
28/04:00pm 20.0 14.4 3.7 34 7.9 ESE 22 32 12 17 1027.0 - 0.0
28/03:30pm 20.2 15.0 3.4 33 8.0 ESE 20 30 11 16 1027.2 1027.3 0.0
28/03:00pm 20.3 15.3 3.5 33 8.1 SE 19 33 10 18 1027.3 - 0.0
28/02:30pm 20.0 14.7 2.8 32 8.2 ESE 20 30 11 16 1027.4 - 0.0
28/02:00pm 19.7 14.7 4.6 37 7.4 SE 20 30 11 16 1027.5 - 0.0
28/01:30pm 19.6 14.5 4.1 36 7.5 ESE 20 28 11 15 1027.8 - 0.0
28/01:00pm 19.3 13.5 4.3 37 7.3 E 24 32 13 17 1028.2 - 0.0
28/12:30pm 19.3 13.5 4.3 37 7.2 ESE 24 35 13 19 1028.7 1028.8 0.0
28/12:00pm 19.5 13.9 5.2 39 7.1 ESE 24 35 13 19 1029.1 - 0.0
28/11:30am 19.1 13.3 4.5 38 7.1 ESE 24 33 13 18 1029.1 - 0.0
28/11:00am 19.2 14.5 6.0 42 6.6 E 20 32 11 17 1029.2 - 0.0
28/10:30am 18.3 13.7 5.8 44 6.2 ESE 19 28 10 15 1029.3 - 0.0
28/10:00am 18.0 13.3 5.9 45 6.0 ESE 20 28 11 15 1029.4 - 0.0
28/09:30am 17.5 12.6 5.1 44 6.0 E 20 24 11 13 1029.2 1029.3 0.0
28/09:00am 16.6 12.2 4.9 46 5.6 E 17 24 9 13 1029.0 - 0.0
28/08:30am 14.8 11.8 5.9 55 4.3 ENE 11 15 6 8 1028.6 - 0.0
28/08:00am 11.3 8.9 5.2 66 2.8 ENE 7 9 4 5 1028.4 - 0.0
28/07:30am 8.8 5.4 3.8 71 2.2 E 11 11 6 6 1028.1 - 0.0
28/07:00am 7.9 3.6 3.0 71 2.1 E 15 17 8 9 1027.9 - 0.0
28/06:30am 9.8 5.9 3.5 65 2.8 ENE 13 13 7 7 1027.3 1027.4 0.0
28/06:00am 8.2 3.9 3.3 71 2.1 ENE 15 15 8 8 1027.1 - 0.0
28/05:30am 7.7 3.4 3.4 74 1.9 ENE 15 17 8 9 1027.0 - 0.0
28/05:00am 7.9 3.6 3.0 71 2.1 ENE 15 17 8 9 1026.9 - 0.0
28/04:30am 8.8 4.5 3.4 69 2.4 ENE 15 15 8 8 1026.7 - 0.0
28/04:00am 8.9 5.1 3.9 71 2.2 E 13 13 7 7 1026.7 - 0.0
28/03:30am 8.0 3.7 3.5 73 1.9 E 15 17 8 9 1026.6 1026.8 0.0
28/03:00am 7.8 3.3 4.2 78 1.6 E 17 19 9 10 1026.7 - 0.0
28/02:30am 9.0 7.2 5.2 77 1.7 ESE 4 9 2 5 1027.0 - 0.0
28/02:00am 8.5 7.1 3.6 71 2.1 CALM 0 0 0 0 1027.2 - 0.0
28/01:30am 10.0 9.1 6.0 76 1.9 CALM 0 0 0 0 1027.2 - 0.0
28/01:00am 9.1 6.5 6.0 81 1.4 WSW 9 11 5 6 1027.1 - 0.0
28/12:30am 10.3 7.7 5.9 74 2.0 SE 9 11 5 6 1027.1 1027.2 0.0
28/12:00am 9.7 7.4 5.9 77 1.8 S 7 9 4 5 1027.2 - 0.0
 
Date/Time
EST
Temp
°C
App
Temp
°C
Dew
Point
Rel
Hum
%
Delta-T
°C
Wind Press
QNH
hPa
Press
MSL
hPa
Rain
since 9 am
mm
Dir
 
Spd
km/h
Gust
km/h
Spd
kts
Gust
kts
27/11:30pm 10.9 8.6 5.7 70 2.4 SSE 7 9 4 5 1027.2 - 0.0
27/11:00pm 11.6 9.6 6.3 70 2.5 SE 6 9 3 5 1027.1 - 0.0
27/10:30pm 11.9 11.1 6.4 69 2.6 CALM 0 0 0 0 1027.0 - 0.0
27/10:00pm 11.1 10.1 5.8 70 2.5 CALM 0 0 0 0 1027.0 - 0.0
27/09:30pm 12.5 11.8 6.8 68 2.8 CALM 0 0 0 0 1027.1 1027.2 0.0
27/09:00pm 12.8 12.0 6.6 66 3.0 CALM 0 0 0 0 1026.7 - 0.0
27/08:30pm 12.8 12.0 6.4 65 3.1 CALM 0 6 0 3 1026.5 - 0.0
27/08:00pm 13.4 11.4 6.3 62 3.4 SE 6 7 3 4 1026.3 - 0.0
27/07:30pm 14.3 12.1 6.4 59 3.9 ESE 7 7 4 4 1026.0 - 0.0
27/07:00pm 14.6 11.6 6.2 57 4.1 ESE 11 13 6 7 1025.6 - 0.0
27/06:30pm 15.9 12.5 6.1 52 4.8 ESE 13 17 7 9 1025.5 1025.6 0.0
27/06:00pm 17.4 12.8 5.7 46 5.8 SE 19 24 10 13 1025.2 - 0.0
27/05:30pm 18.5 14.0 6.0 44 6.2 SE 19 24 10 13 1024.9 - 0.0
27/05:00pm 19.1 14.4 5.9 42 6.6 SE 20 26 11 14 1024.8 - 0.0
27/04:30pm 19.5 15.0 5.9 41 6.8 ESE 19 26 10 14 1024.6 - 0.0
27/04:00pm 19.5 15.4 6.3 42 6.7 SE 17 28 9 15 1024.5 - 0.0
27/03:30pm 19.3 14.7 6.4 43 6.5 ESE 20 28 11 15 1024.6 1024.7 0.0
27/03:00pm 19.3 14.8 6.1 42 6.6 SSE 19 30 10 16 1024.6 - 0.0
27/02:30pm 19.7 15.5 7.4 45 6.4 SE 19 26 10 14 1024.6 - 0.0
27/02:00pm 18.7 14.8 6.9 46 6.0 SE 17 28 9 15 1024.7 - 0.0
27/01:30pm 18.5 14.1 6.7 46 6.0 SE 19 26 10 14 1024.8 - 0.0
27/01:00pm 18.8 14.7 7.9 49 5.7 SE 19 33 10 18 1025.1 - 0.0
27/12:30pm 18.2 13.3 7.0 48 5.7 SE 22 35 12 19 1025.5 1025.6 0.0
27/12:00pm 17.8 13.0 7.2 50 5.4 SSE 22 28 12 15 1025.9 - 0.0
27/11:30am 17.1 12.9 7.5 53 4.9 S 19 30 10 16 1026.2 - 0.0
27/11:00am 16.4 12.5 7.3 55 4.6 SSE 17 24 9 13 1026.5 - 0.0
27/10:30am 15.2 11.7 7.0 58 4.1 S 15 20 8 11 1026.6 - 0.0
27/10:00am 14.6 11.5 7.4 62 3.6 SSE 13 19 7 10 1026.5 - 0.0
27/09:30am 13.0 10.2 6.8 66 3.0 S 11 15 6 8 1026.3 1026.4 0.0
27/09:00am 11.3 8.8 6.4 72 2.3 SSW 9 11 5 6 1026.1 - 0.0
27/08:30am 9.3 7.0 5.7 78 1.7 SSW 7 11 4 6 1026.1 - 0.0
27/08:00am 6.8 4.5 4.8 87 0.9 WSW 6 7 3 4 1025.7 - 0.0
27/07:30am 5.3 2.5 3.3 87 0.8 WSW 7 9 4 5 1025.2 - 0.0
27/07:00am 5.2 2.4 3.1 86 0.9 WSW 7 9 4 5 1024.9 - 0.0
27/06:30am 5.9 3.2 3.6 85 1.0 WSW 7 7 4 4 1024.4 1024.5 0.0
27/06:00am 6.0 4.2 3.7 85 1.0 SW 2 7 1 4 1024.4 - 0.0
27/05:30am 6.0 3.5 3.5 84 1.1 SW 6 7 3 4 1024.3 - 0.0
27/05:00am 5.5 1.9 2.8 83 1.1 WSW 11 15 6 8 1024.1 - 0.0
27/04:30am 6.5 3.0 3.5 81 1.3 S 11 13 6 7 1023.8 - 0.0
27/04:00am 6.7 4.0 3.7 81 1.3 SSW 7 9 4 5 1023.6 - 0.0
27/03:30am 7.3 4.6 3.7 78 1.6 S 7 9 4 5 1023.6 1023.7 0.0
27/03:00am 6.9 4.3 3.2 77 1.6 SSE 6 11 3 6 1023.9 - 0.0
27/02:30am 7.8 6.5 4.0 77 1.7 CALM 0 0 0 0 1024.2 - 0.0
27/02:00am 7.8 6.0 3.7 75 1.8 S 2 6 1 3 1024.5 - 0.0
27/01:30am 8.1 6.7 3.4 72 2.0 CALM 0 0 0 0 1024.7 - 0.0
27/01:00am 9.7 7.3 4.5 70 2.4 SW 6 9 3 5 1024.8 - 0.0
27/12:30am 9.5 6.9 4.3 70 2.3 SW 7 9 4 5 1025.0 1025.1 0.0
27/12:00am 10.1 7.6 4.5 68 2.5 SW 7 9 4 5 1025.1 - 0.0
 
Date/Time
EST
Temp
°C
App
Temp
°C
Dew
Point
Rel
Hum
%
Delta-T
°C
Wind Press
QNH
hPa
Press
MSL
hPa
Rain
since 9 am
mm
Dir
 
Spd
km/h
Gust
km/h
Spd
kts
Gust
kts
26/11:30pm 9.5 7.0 3.9 68 2.5 SSW 6 11 3 6 1025.1 - 0.0
26/11:00pm 11.0 9.8 4.5 64 3.0 CALM 0 7 0 4 1025.0 - 0.0
26/10:30pm 10.9 9.7 4.6 65 2.9 CALM 0 0 0 0 1025.1 - 0.0
26/10:00pm 10.7 9.1 4.6 66 2.8 SSE 2 7 1 4 1025.0 - 0.0
26/09:30pm 10.4 6.8 5.0 69 2.5 SE 13 15 7 8 1024.9 1025.0 0.0
26/09:00pm 10.8 6.4 4.9 67 2.7 SSE 17 20 9 11 1024.9 - 0.0
26/08:30pm 10.3 7.1 4.9 69 2.5 SSE 11 15 6 8 1024.7 - 0.0
26/08:00pm 10.8 7.1 4.5 65 2.9 SSE 13 15 7 8 1024.5 - 0.0
26/07:30pm 11.1 7.0 4.6 64 3.0 SSE 15 15 8 8 1024.2 - 0.0
26/07:00pm 12.3 9.0 4.3 58 3.7 SSE 11 13 6 7 1024.0 - 0.0
26/06:30pm 13.7 10.0 4.3 53 4.4 SSE 13 15 7 8 1024.0 1024.1 0.0
26/06:00pm 16.0 11.5 4.4 46 5.5 S 17 22 9 12 1023.8 - 0.0
26/05:30pm 17.1 12.6 4.1 42 6.2 SSE 17 22 9 12 1023.5 - 0.0
26/05:00pm 17.3 12.4 3.9 41 6.4 S 19 32 10 17 1023.3 - 0.0
26/04:30pm 17.7 12.6 4.3 41 6.4 S 20 30 11 16 1023.2 - 0.0
26/04:00pm 17.4 12.2 3.7 40 6.5 SSE 20 28 11 15 1023.3 - 0.0
26/03:30pm 17.7 12.7 4.6 42 6.3 SE 20 32 11 17 1023.2 1023.2 0.0
26/03:00pm 17.8 12.9 5.1 43 6.2 S 20 30 11 16 1023.3 - 0.0
26/02:30pm 18.0 13.1 4.9 42 6.4 S 20 32 11 17 1023.6 - 0.0
26/02:00pm 17.1 12.1 3.8 41 6.3 S 19 35 10 19 1023.9 - 0.0

Other Formats:

Comma delimited format used in spreadsheet applications
http://www.bom.gov.au/fwo/IDN60801/IDN60801.94691.axf

JavaScript Object Notation format (JSON) in row-major order
http://www.bom.gov.au/fwo/IDN60801/IDN60801.94691.json